Time;durP1;ratioP1;P1;durP2;ratioP2;P2;SDS_P1;SDS_P2;PMS_P1;PMS_P2;Temp;Humidity;BMP_temperature;BMP_pressure;BME280_temperature;BME280_humidity;BME280_pressure;Samples;Min_cycle;Max_cycle;Signal;HPM_P1;HPM_P2
2021/11/02 00:00:30;;;;;;;2.88;0.40;;;7.00;99.90;;;;;;4999780;28;20050;-83
2021/11/02 00:02:56;;;;;;;2.25;0.40;;;7.00;99.90;;;;;;5018603;28;20030;-84
2021/11/02 00:05:22;;;;;;;2.40;0.43;;;7.00;99.90;;;;;;4999424;28;20130;-83
2021/11/02 00:07:47;;;;;;;1.60;0.60;;;7.00;99.90;;;;;;4999082;28;20249;-83
2021/11/02 00:10:14;;;;;;;4.90;0.60;;;7.00;99.90;;;;;;4999462;28;20074;-82
2021/11/02 00:12:40;;;;;;;1.85;0.60;;;7.00;99.90;;;;;;4987276;28;20522;-82
2021/11/02 00:15:20;;;;;;;1.85;0.75;;;6.90;99.90;;;;;;5004657;28;20049;-81
2021/11/02 00:17:48;;;;;;;1.85;0.75;;;6.90;99.90;;;;;;5002593;28;20122;-83
2021/11/02 00:20:15;;;;;;;3.53;0.98;;;6.90;99.90;;;;;;5003324;28;20045;-83
2021/11/02 00:22:41;;;;;;;2.47;0.80;;;6.90;99.90;;;;;;4985897;28;20038;-82
2021/11/02 00:25:08;;;;;;;5.60;1.23;;;6.80;99.90;;;;;;4985194;28;20031;-83
2021/11/02 00:27:39;;;;;;;3.55;1.00;;;6.80;99.90;;;;;;4988340;28;20046;-82
2021/11/02 00:30:10;;;;;;;3.35;1.27;;;6.80;99.90;;;;;;5004536;28;20118;-81
2021/11/02 00:32:37;;;;;;;3.08;1.10;;;6.80;99.90;;;;;;5004818;28;20098;-83
2021/11/02 00:35:05;;;;;;;2.45;0.98;;;6.80;99.90;;;;;;5004397;28;20065;-84
2021/11/02 00:37:31;;;;;;;2.20;1.10;;;6.70;99.90;;;;;;5001677;28;20041;-83
2021/11/02 00:39:56;;;;;;;4.47;0.98;;;6.70;99.90;;;;;;4987742;28;20042;-82
2021/11/02 00:42:31;;;;;;;4.00;0.75;;;6.70;99.90;;;;;;5021038;28;20037;-82
2021/11/02 00:44:58;;;;;;;3.42;0.50;;;6.70;99.90;;;;;;5004425;28;20483;-82
2021/11/02 00:47:25;;;;;;;2.45;0.70;;;6.70;99.90;;;;;;4971735;28;20070;-83
2021/11/02 00:49:51;;;;;;;1.38;0.50;;;6.70;99.90;;;;;;5001777;28;20046;-82
2021/11/02 00:52:16;;;;;;;2.97;0.40;;;6.70;99.90;;;;;;5004358;28;20057;-85
2021/11/02 00:54:42;;;;;;;2.25;0.40;;;6.60;99.90;;;;;;5005602;28;20042;-82
2021/11/02 00:57:07;;;;;;;1.52;0.40;;;6.60;99.90;;;;;;5004447;28;20034;-82
2021/11/02 00:59:33;;;;;;;2.40;0.45;;;6.50;99.90;;;;;;5000177;28;20038;-82
2021/11/02 01:01:59;;;;;;;2.50;0.40;;;6.50;99.90;;;;;;5003344;28;20579;-82
2021/11/02 01:04:25;;;;;;;1.77;0.40;;;6.50;99.90;;;;;;4987369;28;20070;-82
2021/11/02 01:06:51;;;;;;;3.53;0.50;;;6.50;99.90;;;;;;5004297;28;20057;-83
2021/11/02 01:09:16;;;;;;;2.05;0.40;;;6.40;99.90;;;;;;5015533;28;20043;-83
2021/11/02 01:11:42;;;;;;;1.90;0.40;;;6.40;99.90;;;;;;5004268;28;20073;-82
2021/11/02 01:14:07;;;;;;;4.07;0.43;;;6.30;99.90;;;;;;5004241;28;20042;-82
2021/11/02 01:16:34;;;;;;;2.30;0.40;;;6.30;99.90;;;;;;5004084;28;20043;-82
2021/11/02 01:19:00;;;;;;;2.17;0.50;;;6.30;99.90;;;;;;5001973;28;20061;-84
2021/11/02 01:21:26;;;;;;;1.30;0.60;;;6.30;99.90;;;;;;4987821;28;20056;-81
2021/11/02 01:23:52;;;;;;;2.33;0.50;;;6.30;99.90;;;;;;4982026;28;20106;-83
2021/11/02 01:26:17;;;;;;;3.40;0.60;;;6.30;99.90;;;;;;4985747;28;20042;-82
2021/11/02 01:28:43;;;;;;;1.88;0.40;;;6.20;99.90;;;;;;5003891;28;20050;-84
2021/11/02 01:31:09;;;;;;;1.02;0.40;;;6.30;99.90;;;;;;5003954;28;20040;-82
2021/11/02 01:33:40;;;;;;;1.50;0.60;;;6.20;99.90;;;;;;4998700;28;20094;-83
2021/11/02 01:36:06;;;;;;;3.15;0.57;;;6.20;99.90;;;;;;5005670;28;20038;-83
2021/11/02 01:38:32;;;;;;;2.47;0.50;;;6.20;99.90;;;;;;5007555;28;20090;-83
2021/11/02 01:41:06;;;;;;;2.92;0.50;;;6.10;99.90;;;;;;5007614;28;20035;-82
2021/11/02 01:43:32;;;;;;;3.80;0.65;;;6.20;99.90;;;;;;4991449;28;20042;-82
2021/11/02 01:46:00;;;;;;;3.75;0.93;;;6.10;99.90;;;;;;4998886;28;20463;-84
2021/11/02 01:48:31;;;;;;;2.30;0.60;;;6.10;99.90;;;;;;4999295;28;20084;-82
2021/11/02 01:50:56;;;;;;;1.45;0.63;;;6.20;99.90;;;;;;5005693;28;20038;-83
2021/11/02 01:53:23;;;;;;;1.75;0.60;;;6.20;99.90;;;;;;4991235;28;20112;-84
2021/11/02 01:55:54;;;;;;;1.38;0.40;;;6.10;99.90;;;;;;5007178;28;20038;-83
2021/11/02 01:58:21;;;;;;;1.30;0.40;;;6.10;99.90;;;;;;5004555;28;20041;-82
2021/11/02 02:00:56;;;;;;;1.63;0.40;;;6.10;99.90;;;;;;5003150;28;20125;-82
2021/11/02 02:03:50;;;;;;;2.75;0.50;;;6.00;99.90;;;;;;4989430;28;20045;-82
2021/11/02 02:07:00;;;;;;;1.20;0.40;;;6.10;99.90;;;;;;4996597;28;20046;-82
2021/11/02 02:09:41;;;;;;;2.10;0.40;;;6.00;99.90;;;;;;5001878;28;20372;-83
2021/11/02 02:12:13;;;;;;;1.67;0.40;;;6.00;99.90;;;;;;4999001;28;20061;-82
2021/11/02 02:14:58;;;;;;;4.00;0.50;;;6.00;99.90;;;;;;4990659;28;20486;-83
2021/11/02 02:17:30;;;;;;;1.67;0.40;;;6.00;99.90;;;;;;5004108;28;20053;-82
2021/11/02 02:20:08;;;;;;;2.20;0.50;;;6.00;99.90;;;;;;5006865;28;20061;-82
2021/11/02 02:23:01;;;;;;;1.85;0.40;;;5.90;99.90;;;;;;4971009;28;20078;-81
2021/11/02 02:25:38;;;;;;;1.42;0.40;;;6.00;99.90;;;;;;4980107;28;20085;-85
2021/11/02 02:28:20;;;;;;;1.38;0.50;;;6.00;99.90;;;;;;4989450;28;20046;-82
2021/11/02 02:31:00;;;;;;;2.05;0.40;;;6.00;99.90;;;;;;4971732;28;20532;-83
2021/11/02 02:33:43;;;;;;;2.75;0.40;;;6.00;99.90;;;;;;4984888;28;20042;-81
2021/11/02 02:36:12;;;;;;;3.15;0.40;;;6.10;99.90;;;;;;4988194;28;20062;-83
2021/11/02 02:38:58;;;;;;;2.67;0.40;;;6.10;99.90;;;;;;5006736;28;20030;-82
2021/11/02 02:41:25;;;;;;;2.33;0.60;;;6.10;99.90;;;;;;5006482;28;20491;-82
2021/11/02 02:43:52;;;;;;;4.53;0.80;;;6.10;99.90;;;;;;5006312;28;20097;-84
2021/11/02 02:46:19;;;;;;;1.45;0.32;;;6.10;99.90;;;;;;5021807;23;20050;-81
2021/11/02 02:48:46;;;;;;;1.42;0.43;;;6.10;99.90;;;;;;5032767;28;20047;-83
2021/11/02 02:51:13;;;;;;;2.55;0.40;;;6.10;99.90;;;;;;5067056;28;20041;-83
2021/11/02 02:53:42;;;;;;;2.17;0.40;;;6.10;99.90;;;;;;5033587;28;20033;-84
2021/11/02 02:56:10;;;;;;;2.20;0.40;;;6.00;99.90;;;;;;5033562;28;20041;-84
2021/11/02 02:58:41;;;;;;;1.15;0.32;;;6.10;99.90;;;;;;5049818;28;20268;-83
2021/11/02 03:01:09;;;;;;;2.97;0.43;;;6.10;99.90;;;;;;5049946;28;20099;-83
2021/11/02 03:03:47;;;;;;;1.55;0.30;;;6.00;99.90;;;;;;5049943;28;20045;-81
2021/11/02 03:06:15;;;;;;;1.52;0.40;;;6.10;99.90;;;;;;5050285;28;20057;-83
2021/11/02 03:08:43;;;;;;;3.40;0.40;;;6.10;99.90;;;;;;5033402;28;20100;-85
2021/11/02 03:11:11;;;;;;;2.88;0.82;;;6.00;99.90;;;;;;5033016;28;20047;-85
2021/11/02 03:13:38;;;;;;;2.67;0.47;;;6.10;99.90;;;;;;5049596;28;20045;-86
2021/11/02 03:16:07;;;;;;;2.25;0.38;;;6.00;99.90;;;;;;5049606;28;20535;-83
2021/11/02 03:54:52;;;;;;;1.23;0.30;;;5.90;99.90;;;;;;5065176;28;20067;-82
2021/11/02 04:48:21;;;;;;;2.00;0.40;;;5.70;99.90;;;;;;5037227;28;20052;-85
2021/11/02 05:10:28;;;;;;;0.55;0.20;;;5.60;99.90;;;;;;5047572;28;20372;-83
2021/11/02 05:13:21;;;;;;;1.83;0.22;;;5.60;99.90;;;;;;5050356;28;20033;-84
2021/11/02 05:46:48;;;;;;;1.30;0.30;;;5.90;99.90;;;;;;5030651;28;20052;-82
2021/11/02 05:57:33;;;;;;;1.40;0.40;;;5.80;99.90;;;;;;5030856;28;20041;-83
2021/11/02 06:00:11;;;;;;;1.15;0.32;;;5.90;99.90;;;;;;5047614;28;20041;-83
2021/11/02 06:05:31;;;;;;;2.20;0.40;;;6.00;99.90;;;;;;5050444;28;20072;-85
2021/11/02 06:28:13;;;;;;;1.73;0.60;;;6.00;99.90;;;;;;5050003;28;19915;-83
2021/11/02 06:31:11;;;;;;;1.20;0.50;;;5.90;99.90;;;;;;5039194;28;20099;-82
2021/11/02 06:33:35;;;;;;;2.47;0.50;;;5.90;99.90;;;;;;5040409;28;20033;-83
2021/11/02 06:36:16;;;;;;;1.60;0.50;;;5.90;99.90;;;;;;5033325;28;20033;-85
2021/11/02 06:58:39;;;;;;;1.85;0.70;;;5.70;99.90;;;;;;5004849;28;20143;-82
2021/11/02 07:15:34;;;;;;;1.92;0.70;;;5.90;99.90;;;;;;5004321;28;20070;-82
2021/11/02 07:18:13;;;;;;;1.88;0.60;;;5.90;99.90;;;;;;4971652;28;20063;-82
2021/11/02 08:46:30;;;;;;;2.13;0.70;;;7.50;99.90;;;;;;5045998;28;20044;-82
2021/11/02 08:48:57;;;;;;;2.75;0.63;;;7.50;99.90;;;;;;5027619;28;20071;-83
2021/11/02 08:51:25;;;;;;;2.88;0.60;;;7.50;99.90;;;;;;5030319;28;20041;-82
2021/11/02 08:53:51;;;;;;;1.23;0.50;;;7.50;99.90;;;;;;5035994;28;20043;-82
2021/11/02 08:56:18;;;;;;;2.90;0.80;;;7.60;99.90;;;;;;5026256;28;20053;-82
2021/11/02 08:58:49;;;;;;;1.88;0.60;;;7.60;99.90;;;;;;5025763;28;20048;-82
2021/11/02 09:01:18;;;;;;;2.53;0.82;;;7.70;99.90;;;;;;5026485;28;20041;-82
2021/11/02 09:03:46;;;;;;;3.05;0.65;;;7.80;99.90;;;;;;5029695;28;20043;-82
2021/11/02 09:06:15;;;;;;;3.20;0.60;;;7.80;99.90;;;;;;5046440;28;20055;-82
2021/11/02 09:08:48;;;;;;;4.05;0.60;;;7.90;99.90;;;;;;5020764;28;20072;-82
2021/11/02 09:11:15;;;;;;;1.92;0.65;;;8.00;99.90;;;;;;5008937;28;20050;-82
2021/11/02 09:13:47;;;;;;;1.75;0.60;;;8.10;99.90;;;;;;5025709;28;20486;-83
2021/11/02 09:16:15;;;;;;;1.95;0.60;;;8.20;99.90;;;;;;5009854;28;20045;-82
2021/11/02 09:18:43;;;;;;;1.23;0.55;;;8.30;99.90;;;;;;5026020;28;20077;-82
2021/11/02 09:21:10;;;;;;;4.78;0.65;;;8.30;99.90;;;;;;5010373;28;20034;-83
2021/11/02 09:23:41;;;;;;;2.85;0.60;;;8.30;99.90;;;;;;5026645;28;20544;-82
2021/11/02 09:26:07;;;;;;;1.58;0.50;;;8.40;99.90;;;;;;5010217;28;20124;-82
2021/11/02 09:28:32;;;;;;;2.10;0.73;;;8.50;99.90;;;;;;5026281;28;20052;-82
2021/11/02 09:30:58;;;;;;;2.25;0.50;;;8.50;99.90;;;;;;5026081;28;20049;-82
2021/11/02 09:33:27;;;;;;;1.83;0.70;;;8.50;99.90;;;;;;5009627;28;20532;-82
2021/11/02 09:36:05;;;;;;;3.78;0.60;;;8.50;99.90;;;;;;5026284;28;20071;-82
2021/11/02 09:39:01;;;;;;;1.92;0.60;;;8.60;99.90;;;;;;5010443;28;20048;-83
2021/11/02 09:41:46;;;;;;;1.75;0.65;;;8.60;99.90;;;;;;5039255;28;20128;-82
2021/11/02 09:44:27;;;;;;;2.35;0.63;;;8.70;99.90;;;;;;5029399;28;20051;-81
2021/11/02 09:47:27;;;;;;;1.75;0.70;;;8.70;99.90;;;;;;5032001;23;20042;-83
2021/11/02 09:50:29;;;;;;;2.05;0.60;;;8.80;99.90;;;;;;5026161;28;20071;-83
2021/11/02 09:53:38;;;;;;;3.42;0.70;;;8.90;99.90;;;;;;5051489;28;20038;-83
2021/11/02 09:56:14;;;;;;;;;;;9.00;99.90;;;;;;5007943;28;20065;-82
2021/11/02 09:59:24;;;;;;;2.58;0.75;;;9.00;99.90;;;;;;5043287;28;19936;-82
2021/11/02 10:02:19;;;;;;;1.77;0.70;;;9.00;99.90;;;;;;5019565;28;20053;-82
2021/11/02 10:05:15;;;;;;;2.40;0.68;;;8.90;99.90;;;;;;5043191;28;20076;-86
2021/11/02 10:08:01;;;;;;;3.13;0.85;;;8.80;99.90;;;;;;5030473;28;20045;-81
2021/11/02 10:10:56;;;;;;;4.90;1.10;;;8.70;99.90;;;;;;5042309;28;20053;-80
2021/11/02 10:13:33;;;;;;;2.20;0.77;;;8.70;99.90;;;;;;5027079;28;20057;-81
2021/11/02 10:16:03;;;;;;;3.65;1.13;;;8.70;99.90;;;;;;5030529;28;20033;-91
2021/11/02 10:19:04;;;;;;;3.05;0.80;;;8.70;99.90;;;;;;5059014;28;20040;-83
2021/11/02 10:22:02;;;;;;;2.15;0.80;;;8.70;99.90;;;;;;5025650;28;20596;-81
2021/11/02 10:24:59;;;;;;;1.63;0.65;;;8.80;99.90;;;;;;5065428;28;20029;-89
2021/11/02 10:27:32;;;;;;;4.10;1.02;;;8.70;99.90;;;;;;5054492;28;20045;-83
2021/11/02 10:30:17;;;;;;;3.80;1.20;;;8.80;99.90;;;;;;5070359;28;20041;-82
2021/11/02 10:32:46;;;;;;;2.80;1.00;;;8.90;99.90;;;;;;5036949;28;20033;-82
2021/11/02 10:35:32;;;;;;;1.67;0.68;;;9.00;99.90;;;;;;5065955;28;20126;-81
2021/11/02 10:38:26;;;;;;;1.60;0.70;;;9.00;99.90;;;;;;5034686;28;20439;-82
2021/11/02 10:40:56;;;;;;;2.55;0.80;;;9.10;99.90;;;;;;5049330;28;20045;-86
2021/11/02 10:44:01;;;;;;;2.88;0.90;;;9.10;99.90;;;;;;5062273;28;20025;-82
2021/11/02 10:46:34;;;;;;;3.35;0.85;;;9.20;99.90;;;;;;5049856;28;20099;-84
2021/11/02 10:49:24;;;;;;;1.92;0.60;;;9.20;99.90;;;;;;5039701;28;20072;-87
2021/11/02 10:52:06;;;;;;;3.95;1.45;;;9.30;99.90;;;;;;5045564;28;20036;-87
2021/11/02 10:54:31;;;;;;;4.20;1.27;;;9.30;99.90;;;;;;5032304;28;20038;-85
2021/11/02 10:57:12;;;;;;;2.65;0.90;;;9.30;99.90;;;;;;5045681;28;20045;-87
2021/11/02 10:59:44;;;;;;;2.30;0.80;;;9.30;99.90;;;;;;5046596;28;20052;-90
2021/11/02 11:02:29;;;;;;;2.65;0.90;;;9.40;99.90;;;;;;5045926;28;20087;-86
2021/11/02 11:04:57;;;;;;;2.65;1.08;;;9.40;99.90;;;;;;5045701;28;20424;-85
2021/11/02 11:07:38;;;;;;;2.63;0.85;;;9.50;99.90;;;;;;5040970;28;20037;-86
2021/11/02 11:10:07;;;;;;;2.03;0.82;;;9.60;99.90;;;;;;5048414;28;20052;-82
2021/11/02 11:12:38;;;;;;;2.05;0.85;;;9.60;99.90;;;;;;5039166;28;20507;-87
2021/11/02 11:15:07;;;;;;;2.30;0.98;;;9.60;99.90;;;;;;5048293;28;20060;-88
2021/11/02 11:17:35;;;;;;;3.25;1.10;;;9.60;99.90;;;;;;5030716;28;20044;-89
2021/11/02 11:20:15;;;;;;;2.38;0.50;;;9.60;99.90;;;;;;5065094;28;20041;-85
2021/11/02 11:22:47;;;;;;;2.45;1.05;;;9.60;99.90;;;;;;5043499;28;20052;-89
2021/11/02 11:25:19;;;;;;;3.25;0.88;;;9.60;99.90;;;;;;5048485;28;20059;-87
2021/11/02 11:27:57;;;;;;;1.80;0.85;;;9.70;99.90;;;;;;5044007;28;20037;-87
2021/11/02 11:30:35;;;;;;;2.03;0.82;;;9.80;99.90;;;;;;5048478;28;20044;-88
2021/11/02 11:33:11;;;;;;;2.35;0.85;;;9.90;99.90;;;;;;5081527;28;20037;-90
2021/11/02 11:35:38;;;;;;;2.00;0.80;;;10.00;99.90;;;;;;5042681;28;20041;-86
2021/11/02 11:38:06;;;;;;;2.38;0.90;;;10.00;99.90;;;;;;5048189;28;20037;-83
2021/11/02 11:40:37;;;;;;;3.17;0.80;;;9.90;99.90;;;;;;5052825;28;20041;-82
2021/11/02 11:43:08;;;;;;;3.40;1.00;;;10.00;99.90;;;;;;5061198;28;20046;-82
2021/11/02 11:45:40;;;;;;;3.15;0.80;;;10.00;99.90;;;;;;5022139;28;20068;-82
2021/11/02 11:48:10;;;;;;;3.13;0.90;;;10.00;99.90;;;;;;5058252;28;20260;-83
2021/11/02 11:50:43;;;;;;;2.05;0.63;;;10.00;99.90;;;;;;5042918;28;20408;-81
2021/11/02 11:53:14;;;;;;;;;;;10.00;99.90;;;;;;5081680;28;20052;-82
2021/11/02 11:55:50;;;;;;;2.92;0.60;;;10.10;99.90;;;;;;5056863;28;19916;-82
2021/11/02 11:58:24;;;;;;;4.53;1.25;;;10.10;99.90;;;;;;5044624;28;20069;-82
2021/11/02 12:01:15;;;;;;;4.03;1.27;;;10.10;99.90;;;;;;5040628;28;20500;-82
2021/11/02 12:03:57;;;;;;;2.78;1.00;;;10.10;99.90;;;;;;5034940;28;20041;-81
2021/11/02 12:06:33;;;;;;;2.55;1.05;;;10.20;99.90;;;;;;5044200;28;20041;-82
2021/11/02 12:09:07;;;;;;;3.78;1.20;;;10.10;99.90;;;;;;5044349;28;20037;-82
2021/11/02 12:11:35;;;;;;;2.63;1.20;;;10.00;99.90;;;;;;5022135;28;20101;-82
2021/11/02 12:14:18;;;;;;;2.63;0.95;;;10.10;99.90;;;;;;5028022;28;20083;-82
2021/11/02 12:16:45;;;;;;;4.07;1.17;;;10.10;99.90;;;;;;5039654;28;20071;-82
2021/11/02 12:19:16;;;;;;;2.60;1.45;;;10.30;99.90;;;;;;5043906;28;20113;-82
2021/11/02 12:21:48;;;;;;;2.72;1.48;;;10.30;99.90;;;;;;5041944;28;20029;-81
2021/11/02 12:24:16;;;;;;;4.00;1.52;;;10.40;99.90;;;;;;5026730;28;20040;-89
2021/11/02 12:26:49;;;;;;;3.10;1.42;;;10.50;99.90;;;;;;5039331;28;20041;-82
2021/11/02 12:29:22;;;;;;;3.28;1.17;;;10.60;99.90;;;;;;5043973;28;20046;-84
2021/11/02 12:32:04;;;;;;;5.38;1.30;;;10.60;99.90;;;;;;5040126;28;20041;-82
2021/11/02 12:34:55;;;;;;;2.63;1.20;;;10.70;99.90;;;;;;5043893;28;20073;-82
2021/11/02 12:37:24;;;;;;;2.38;1.00;;;10.70;99.90;;;;;;5027292;28;20041;-84
2021/11/02 12:39:50;;;;;;;2.45;1.17;;;10.60;99.90;;;;;;5063231;28;20461;-86
2021/11/02 12:42:20;;;;;;;3.50;1.33;;;10.70;99.90;;;;;;5043657;28;20041;-84
2021/11/02 12:44:49;;;;;;;3.17;1.15;;;10.70;99.90;;;;;;5039757;28;20556;-83
2021/11/02 12:47:20;;;;;;;3.17;1.10;;;10.60;99.90;;;;;;5046226;28;20493;-82
2021/11/02 12:49:58;;;;;;;3.15;1.00;;;10.60;99.90;;;;;;5058346;28;20072;-81
2021/11/02 12:52:28;;;;;;;3.03;1.10;;;10.60;99.90;;;;;;5079281;28;20048;-82
2021/11/02 12:55:10;;;;;;;2.00;0.90;;;10.50;99.90;;;;;;5062713;28;20048;-82
2021/11/02 12:57:43;;;;;;;3.35;0.90;;;10.70;99.90;;;;;;5056814;28;20108;-83
2021/11/02 13:00:27;;;;;;;1.77;0.75;;;10.60;99.90;;;;;;5046167;28;20064;-82
2021/11/02 13:02:58;;;;;;;3.28;1.33;;;10.60;99.90;;;;;;5029591;28;20067;-82
2021/11/02 13:05:27;;;;;;;2.67;1.13;;;10.50;99.90;;;;;;5029720;28;20040;-83
2021/11/02 13:08:13;;;;;;;2.45;1.00;;;10.60;99.90;;;;;;5029302;28;20041;-82
2021/11/02 13:10:41;;;;;;;3.65;0.90;;;10.50;99.90;;;;;;5045805;28;20052;-82
2021/11/02 13:13:17;;;;;;;1.67;0.90;;;10.40;99.90;;;;;;5029366;28;20041;-83
2021/11/02 13:15:53;;;;;;;2.00;1.10;;;10.40;99.90;;;;;;5029416;28;20087;-82
2021/11/02 13:18:34;;;;;;;3.60;0.85;;;10.40;99.90;;;;;;5028858;28;20044;-82
2021/11/02 13:21:29;;;;;;;3.38;1.10;;;10.40;99.90;;;;;;5030602;28;20132;-81
2021/11/02 13:24:03;;;;;;;3.55;1.02;;;10.40;99.90;;;;;;5039507;28;20096;-84
2021/11/02 13:26:31;;;;;;;5.47;0.98;;;10.40;99.90;;;;;;5035962;28;20030;-81
2021/11/02 13:29:15;;;;;;;3.13;1.00;;;10.50;99.90;;;;;;5025823;28;20068;-83
2021/11/02 13:32:01;;;;;;;2.17;0.85;;;10.50;99.90;;;;;;5038443;28;20091;-85
2021/11/02 13:34:30;;;;;;;2.33;0.77;;;10.60;99.90;;;;;;5061989;28;20041;-82
2021/11/02 13:37:10;;;;;;;2.40;0.90;;;10.60;99.90;;;;;;5062410;28;20473;-82
2021/11/02 13:39:57;;;;;;;4.10;1.20;;;10.70;99.90;;;;;;5040290;28;20053;-83
2021/11/02 13:42:49;;;;;;;3.10;0.80;;;10.60;99.90;;;;;;5062329;28;20041;-82
2021/11/02 13:45:35;;;;;;;2.72;0.90;;;10.70;99.90;;;;;;5046720;28;20048;-83
2021/11/02 13:48:02;;;;;;;3.65;1.00;;;10.60;99.90;;;;;;4971500;28;1017581;-84
2021/11/02 13:50:28;;;;;;;4.07;1.00;;;10.70;99.90;;;;;;5025989;28;20123;-84
2021/11/02 13:52:54;;;;;;;1.65;1.10;;;10.70;99.90;;;;;;5009372;28;20264;-84
2021/11/02 13:55:22;;;;;;;2.30;0.98;;;10.80;99.90;;;;;;5009644;28;20034;-83
2021/11/02 13:57:48;;;;;;;2.55;0.77;;;10.70;99.90;;;;;;5009544;28;20525;-83
2021/11/02 14:00:14;;;;;;;2.47;1.00;;;10.70;99.90;;;;;;5009331;28;20069;-85
2021/11/02 14:02:42;;;;;;;3.00;0.90;;;10.70;99.90;;;;;;5027399;28;20356;-84
2021/11/02 14:05:10;;;;;;;3.70;1.13;;;10.60;99.90;;;;;;5012633;28;20041;-82
2021/11/02 14:07:37;;;;;;;3.20;1.20;;;10.50;99.90;;;;;;5029314;28;20128;-84
2021/11/02 14:10:09;;;;;;;2.35;1.05;;;10.40;99.90;;;;;;5028716;28;20057;-82
2021/11/02 14:12:52;;;;;;;1.98;1.23;;;10.40;99.90;;;;;;5028810;28;20064;-83
2021/11/02 14:15:20;;;;;;;4.45;1.00;;;10.40;99.90;;;;;;5028767;28;20445;-82
2021/11/02 14:17:52;;;;;;;2.35;1.00;;;10.40;99.90;;;;;;5028638;28;20418;-82
2021/11/02 14:20:36;;;;;;;2.20;0.90;;;10.30;99.90;;;;;;5028670;28;20132;-81
2021/11/02 14:23:05;;;;;;;2.80;1.08;;;10.30;99.90;;;;;;5028495;28;20063;-82
2021/11/02 14:25:33;;;;;;;2.28;0.93;;;10.20;99.90;;;;;;5052830;28;20037;-82
2021/11/02 14:27:59;;;;;;;2.42;0.90;;;10.20;99.90;;;;;;5066118;28;20048;-81
2021/11/02 14:30:31;;;;;;;2.30;0.82;;;10.10;99.90;;;;;;5042341;28;20052;-82
2021/11/02 14:33:04;;;;;;;2.78;0.90;;;10.10;99.90;;;;;;5049723;28;20041;-83
2021/11/02 14:35:50;;;;;;;2.80;0.90;;;10.10;99.90;;;;;;5060334;28;20108;-82
2021/11/02 14:38:21;;;;;;;3.45;0.70;;;9.90;99.90;;;;;;5049359;28;20051;-82
2021/11/02 14:40:54;;;;;;;2.97;0.70;;;9.80;99.90;;;;;;5037500;28;20053;-83
2021/11/02 14:43:28;;;;;;;2.63;0.52;;;9.70;99.90;;;;;;5061129;28;20045;-83
2021/11/02 14:45:57;;;;;;;1.10;0.40;;;9.70;99.90;;;;;;5045740;28;20040;-83
2021/11/02 14:48:34;;;;;;;1.42;0.40;;;9.70;99.90;;;;;;5064277;28;20053;-81
2021/11/02 14:51:25;;;;;;;0.98;0.30;;;9.70;99.90;;;;;;5029059;28;20049;-82
2021/11/02 14:53:53;;;;;;;2.42;0.47;;;9.60;99.90;;;;;;5020720;28;20038;-82
2021/11/02 14:56:20;;;;;;;0.90;0.40;;;9.70;99.90;;;;;;5036957;28;20045;-82
2021/11/02 14:58:56;;;;;;;2.05;0.60;;;9.80;99.90;;;;;;5054200;28;20056;-83
2021/11/02 15:01:27;;;;;;;1.13;0.50;;;9.70;99.90;;;;;;5039010;28;20049;-83
2021/11/02 15:03:58;;;;;;;1.90;0.70;;;9.70;99.90;;;;;;5044473;28;20033;-84
2021/11/02 15:06:52;;;;;;;2.22;0.70;;;9.70;99.90;;;;;;5035655;28;20040;-84
2021/11/02 15:09:20;;;;;;;1.40;0.60;;;9.70;99.90;;;;;;5040978;28;20044;-84
2021/11/02 15:11:47;;;;;;;2.38;0.80;;;9.70;99.90;;;;;;5042460;28;20049;-84
2021/11/02 15:14:28;;;;;;;3.10;0.60;;;9.70;99.90;;;;;;5041550;28;20037;-84
2021/11/02 15:16:59;;;;;;;2.22;0.60;;;9.70;99.90;;;;;;5041916;28;20059;-85
2021/11/02 15:19:27;;;;;;;1.23;0.50;;;9.70;99.90;;;;;;5051318;28;20036;-83
2021/11/02 15:21:54;;;;;;;1.20;0.43;;;9.60;99.90;;;;;;5045787;28;20066;-83
2021/11/02 15:24:32;;;;;;;1.33;0.40;;;9.60;99.90;;;;;;5031770;28;20512;-83
2021/11/02 15:27:06;;;;;;;1.27;0.40;;;9.50;99.90;;;;;;5044938;28;20047;-83
2021/11/02 15:29:33;;;;;;;1.83;0.30;;;9.50;99.90;;;;;;5030442;28;20053;-83
2021/11/02 15:32:16;;;;;;;1.30;0.30;;;9.30;99.90;;;;;;5043970;28;20528;-83
2021/11/02 15:34:51;;;;;;;1.48;0.60;;;9.30;99.90;;;;;;5049805;28;20040;-83
2021/11/02 15:37:21;;;;;;;1.50;0.60;;;9.30;99.90;;;;;;5039046;28;20042;-83
2021/11/02 15:39:58;;;;;;;2.13;0.68;;;9.20;99.90;;;;;;5052516;28;20033;-83
2021/11/02 15:42:31;;;;;;;1.45;0.60;;;9.10;99.90;;;;;;5043834;28;20036;-82
2021/11/02 15:45:06;;;;;;;2.67;1.05;;;9.10;99.90;;;;;;5059132;28;20038;-83
2021/11/02 15:47:37;;;;;;;1.58;0.75;;;9.10;99.90;;;;;;5030829;28;20089;-83
2021/11/02 15:50:09;;;;;;;1.83;0.80;;;9.10;99.90;;;;;;5042719;28;20060;-83
2021/11/02 15:52:38;;;;;;;2.67;1.17;;;9.00;99.90;;;;;;5036190;28;20064;-84
2021/11/02 15:55:15;;;;;;;3.13;1.38;;;9.00;99.90;;;;;;5042134;28;20524;-83
2021/11/02 15:57:47;;;;;;;2.97;1.00;;;9.00;99.90;;;;;;5050517;28;20060;-83
2021/11/02 16:00:15;;;;;;;2.08;1.08;;;9.00;99.90;;;;;;5057082;28;20044;-83
2021/11/02 16:02:43;;;;;;;2.92;0.65;;;8.90;99.90;;;;;;5034072;28;20114;-83
2021/11/02 16:05:20;;;;;;;1.90;0.80;;;9.00;99.90;;;;;;5039156;28;20037;-84
2021/11/02 16:07:45;;;;;;;1.77;0.95;;;8.90;99.90;;;;;;5046049;28;20116;-84
2021/11/02 16:10:12;;;;;;;1.90;1.02;;;8.90;99.90;;;;;;5037629;28;20045;-83
2021/11/02 16:12:40;;;;;;;2.63;1.10;;;8.90;99.90;;;;;;5037656;28;20394;-83
2021/11/02 16:15:06;;;;;;;1.10;0.63;;;8.90;99.90;;;;;;5056011;28;20033;-83
2021/11/02 16:17:42;;;;;;;2.45;1.25;;;8.90;99.90;;;;;;5051987;28;20405;-83
2021/11/02 16:20:23;;;;;;;2.88;1.00;;;8.90;99.90;;;;;;5045867;28;20485;-83
2021/11/02 16:23:05;;;;;;;2.45;1.35;;;8.90;99.90;;;;;;5058051;28;20045;-84
2021/11/02 16:25:33;;;;;;;2.25;1.33;;;8.90;99.90;;;;;;5045885;28;20039;-82
2021/11/02 16:28:12;;;;;;;2.38;1.20;;;8.90;99.90;;;;;;5078005;28;20564;-83
2021/11/02 16:30:42;;;;;;;2.75;1.23;;;8.90;99.90;;;;;;5034813;28;20045;-84
2021/11/02 16:33:09;;;;;;;2.40;1.50;;;8.90;99.90;;;;;;5036333;28;20072;-84
2021/11/02 16:35:37;;;;;;;3.25;2.13;;;8.90;99.90;;;;;;5058154;28;20032;-83
2021/11/02 16:38:35;;;;;;;3.63;2.58;;;8.80;99.90;;;;;;5044066;28;20044;-82
2021/11/02 16:41:20;;;;;;;2.92;1.75;;;8.80;99.90;;;;;;5039904;28;20048;-83
2021/11/02 16:44:01;;;;;;;4.57;2.95;;;8.80;99.90;;;;;;5037367;28;20069;-82
2021/11/02 16:46:41;;;;;;;4.00;2.28;;;8.80;99.90;;;;;;5043780;28;20036;-83
2021/11/02 16:49:28;;;;;;;3.70;1.95;;;8.80;99.90;;;;;;5037511;28;20101;-83
2021/11/02 16:52:04;;;;;;;2.90;1.85;;;8.80;99.90;;;;;;5069082;28;20043;-83
2021/11/02 16:54:43;;;;;;;2.90;1.73;;;8.80;99.90;;;;;;5037609;28;20044;-87
2021/11/02 16:57:23;;;;;;;2.47;1.65;;;8.80;99.90;;;;;;5061706;28;20045;-85
2021/11/02 16:59:59;;;;;;;2.53;1.42;;;8.70;99.90;;;;;;5040560;28;20048;-83
2021/11/02 17:02:28;;;;;;;4.25;2.53;;;8.70;99.90;;;;;;5037034;28;20345;-84
2021/11/02 17:05:13;;;;;;;4.10;2.97;;;8.70;99.90;;;;;;5052188;28;20473;-87
2021/11/02 17:08:02;;;;;;;4.75;2.45;;;8.70;99.90;;;;;;5065444;28;20044;-83
2021/11/02 17:10:37;;;;;;;6.63;2.92;;;8.60;99.90;;;;;;5049283;28;20049;-82
2021/11/02 17:13:13;;;;;;;4.47;2.67;;;8.60;99.90;;;;;;5043136;28;20044;-83
2021/11/02 17:15:59;;;;;;;5.57;2.97;;;8.60;99.90;;;;;;5038641;28;20057;-82
2021/11/02 17:18:57;;;;;;;3.88;1.67;;;8.50;99.90;;;;;;5057715;28;20044;-82
2021/11/02 17:21:26;;;;;;;4.13;3.05;;;8.60;99.90;;;;;;5045926;28;20033;-82
2021/11/02 17:23:53;;;;;;;4.88;2.88;;;8.50;99.90;;;;;;5061930;28;20045;-82
2021/11/02 17:26:20;;;;;;;4.97;2.53;;;8.50;99.90;;;;;;5059113;28;20044;-82
2021/11/02 17:28:47;;;;;;;3.08;2.17;;;8.40;99.90;;;;;;5064698;28;20041;-82
2021/11/02 17:31:15;;;;;;;3.92;2.92;;;8.40;99.90;;;;;;5047252;28;20057;-82
2021/11/02 17:33:41;;;;;;;3.88;3.08;;;8.30;99.90;;;;;;5040331;28;20376;-81
2021/11/02 17:36:12;;;;;;;3.80;2.40;;;8.20;99.90;;;;;;5035611;28;20045;-81
2021/11/02 17:38:39;;;;;;;2.97;1.65;;;8.20;99.90;;;;;;5060529;28;20039;-82
2021/11/02 17:41:05;;;;;;;4.35;2.47;;;8.20;99.90;;;;;;5061345;28;20100;-82
2021/11/02 17:43:56;;;;;;;2.83;1.80;;;8.10;99.90;;;;;;5058839;28;20133;-82
2021/11/02 18:02:27;;;;;;;4.95;3.05;;;7.70;99.90;;;;;;5060341;28;20146;-82
2021/11/02 18:04:56;;;;;;;5.82;4.18;;;7.60;99.90;;;;;;5025925;28;20037;-83
2021/11/02 18:07:22;;;;;;;7.13;4.68;;;7.60;99.90;;;;;;5049967;28;20025;-82
2021/11/02 18:09:48;;;;;;;6.93;4.72;;;7.60;99.90;;;;;;5043220;28;20048;-83
2021/11/02 18:12:14;;;;;;;7.72;5.00;;;7.60;99.90;;;;;;5048130;28;20061;-82
2021/11/02 18:14:39;;;;;;;7.72;5.35;;;7.50;99.90;;;;;;5033023;28;20108;-83
2021/11/02 18:17:06;;;;;;;7.00;4.93;;;7.50;99.90;;;;;;5039678;28;20034;-83
2021/11/02 18:19:33;;;;;;;8.98;5.03;;;7.50;99.90;;;;;;5049082;28;20037;-82
2021/11/02 18:21:59;;;;;;;10.20;5.70;;;7.40;99.90;;;;;;5027593;28;20036;-83
2021/11/02 18:24:25;;;;;;;9.00;5.75;;;7.40;99.90;;;;;;5030293;28;20047;-81
2021/11/02 18:26:51;;;;;;;9.95;6.35;;;7.40;99.90;;;;;;5026378;28;20039;-82
2021/11/02 18:29:17;;;;;;;9.82;6.65;;;7.40;99.90;;;;;;5031612;28;20100;-82
2021/11/02 18:31:42;;;;;;;10.35;6.93;;;7.40;99.90;;;;;;5046742;28;20041;-82
2021/11/02 18:34:08;;;;;;;11.73;6.93;;;7.40;99.90;;;;;;5032951;28;20132;-82